Bangalore, India

6:38 PM IST on August 23, 2014 (GMT +0530)
Pride Orchid | Change Station
CLOSE
Current Station
Personal Weather Station
Location: Bangalore, KARNATAKA
Elevation: 2890 ft
Nearby Weather Stations

Elev 2890 ft 12.95 °N, 77.72 °E | Updated 3 minutes ago

Mostly Cloudy
Mostly Cloudy
77.7 °F
Feels Like 80 °F
N
0.0
Wind Variable Wind from ESE
Gusts 3.0 mph

Today
High -- | Low -- °F
--% Chance of Precip.
Yesterday
High -- | Low -- °F
Precip. -- in
6:08 AM 6:36 PM
Waning Crescent, 4% visible
Pressure 29.83 in
Visibility 3.7 miles
Clouds Scattered Clouds 1500 ft
Scattered Clouds 2000 ft
Few 2500 ft
Mostly Cloudy 8000 ft
Heat Index 80 °F
Dew Point 70 °F
Humidity 77%
Rainfall 0.00 in
Snow Depth Not available.
UV 0.0 out of 12
Pollen Not available.
Air Quality Not available.
Flu Activity Not available.
METAR VOBL 231300Z 21006KT 6000 VCSH SCT015 SCT020 FEW025CB BKN080 29/24 Q1010 NOSIG RMK CB W,NW

More Conditions Fewer Conditions

Pressure 29.83 in
Visibility 3.7 miles
Clouds Scattered Clouds 1500 ft
Scattered Clouds 2000 ft
Few 2500 ft
Mostly Cloudy 8000 ft
Heat Index 80 °F
Dew Point 70 °F
Humidity 77%
Rainfall 0.00 in
Snow Depth Not available.
UV 0.0 out of 12
Pollen Not available.
Air Quality Not available.
Flu Activity Not available.
METAR VOBL 231300Z 21006KT 6000 VCSH SCT015 SCT020 FEW025CB BKN080 29/24 Q1010 NOSIG RMK CB W,NW

More Conditions Fewer Conditions

10-Day Weather Forecast

Almanac

Astronomy

Aug. 23, 2014 Rise Set
Actual Time 6:08 AM IST 6:36 PM IST
Civil Twilight 5:46 AM IST 6:58 PM IST
Nautical Twilight 5:21 AM IST 7:23 PM IST
Astronomical Twilight 4:55 AM IST 7:49 PM IST
Moon 4:08 AM IST 4:58 PM IST
Length of Visible Light 13h 11m
Length of Day
12h 28m
Tomorrow will be 0m 40s shorter.
Waning Crescent, 4% of the Moon is Illuminated
Today
Waning Crescent
Aug 25
New
Sep 2
First Quarter
Sep 8
Full
Sep 15
Last Quarter

Yesterday's Extremes

Country Highs Country Lows

Community

WunderPhotos

Upload Photos

1,746,447 photos uploaded!

WunderBlogs® & News

By Dr. Jeff Masters
Director of Meteorology, Weather Underground
By Kari Strenfel
Meteorologist, Weather Underground
By Christopher C. Burt
Weather Historian, Weather Underground
August 23, 2014
August 23, 2014
August 23, 2014

Nearby

Snow Depth

Not available.

Earthquake Activity

City Distance Mag. Time & Date
No recent earthquake activity has been reported nearby.
Minimum magnitude displayed is 2.5.

Coastal Water Temperatures

Place Temperature
No Stations Reporting

Nearby Weather Stations